createdAt,value
2023-02-19T00:01:10.938Z,100397.06
2023-02-19T00:03:12.577Z,100394.66
2023-02-19T00:05:14.373Z,100375.78
2023-02-19T00:07:15.799Z,100368.78
2023-02-19T00:09:18.980Z,100394.34
2023-02-19T00:11:22.735Z,100351.59
2023-02-19T00:13:24.151Z,100391.16
2023-02-19T00:15:25.642Z,100396.63
2023-02-19T00:17:27.155Z,100409.78
2023-02-19T00:19:28.823Z,100399.22
2023-02-19T00:21:30.554Z,100402.69
2023-02-19T00:23:32.458Z,100388.81
2023-02-19T00:25:36.859Z,100407.28
2023-02-19T00:27:38.263Z,100382.75
2023-02-19T00:29:39.912Z,100398.41
2023-02-19T00:31:41.407Z,100393.88
2023-02-19T00:33:42.893Z,100402.34
2023-02-19T00:35:44.550Z,100398.91
2023-02-19T00:37:45.981Z,100394.59
2023-02-19T00:39:48.174Z,100397.31
2023-02-19T00:41:49.932Z,100396.78
2023-02-19T00:43:52.564Z,100393.34
2023-02-19T00:45:54.024Z,100390.72
2023-02-19T00:47:55.614Z,100402.41
2023-02-19T00:49:57.014Z,100393.72
2023-02-19T00:51:58.413Z,100387.97
2023-02-19T00:54:00.203Z,100388.28
2023-02-19T00:56:01.687Z,100392.66
2023-02-19T00:58:03.217Z,100389.41
2023-02-19T01:00:05.318Z,100388.03
2023-02-19T01:02:06.688Z,100378.16
2023-02-19T01:04:08.262Z,100389.78
2023-02-19T01:06:11.246Z,100390.22
2023-02-19T01:08:12.640Z,100389.81
2023-02-19T01:10:14.079Z,100383.91
2023-02-19T01:12:15.663Z,100390.66
2023-02-19T01:14:17.063Z,100392.19
2023-02-19T01:16:21.108Z,100386.09
2023-02-19T01:18:22.978Z,100392.19
2023-02-19T01:20:24.372Z,100382.91
2023-02-19T01:22:25.831Z,100386.63
2023-02-19T01:24:27.424Z,100385.53
2023-02-19T01:26:30.923Z,100386.38
2023-02-19T01:28:32.370Z,100391.31
2023-02-19T01:30:35.553Z,100381.44
2023-02-19T01:32:37.091Z,100372.72
2023-02-19T01:34:38.622Z,100383.06
2023-02-19T01:36:40.504Z,100382.22
2023-02-19T01:38:42.350Z,100382.28
2023-02-19T01:40:43.810Z,100373.88
2023-02-19T01:42:45.389Z,100348.25
2023-02-19T01:44:46.736Z,100374.97
2023-02-19T01:46:48.174Z,100377.25
2023-02-19T01:48:49.880Z,100364.13
2023-02-19T01:50:56.923Z,100357.75
2023-02-19T01:53:01.244Z,100363.69
2023-02-19T01:55:07.352Z,100353.09
2023-02-19T01:57:15.958Z,100365.22
2023-02-19T01:59:18.498Z,100372.69
2023-02-19T02:01:20.252Z,100375.28
2023-02-19T02:03:22.037Z,100358.44
2023-02-19T02:05:50.365Z,100370.78
2023-02-19T02:07:52.176Z,100362.25
2023-02-19T02:09:54.154Z,100364.53
2023-02-19T02:11:55.540Z,100355.31
2023-02-19T02:13:58.474Z,100358.59
2023-02-19T02:16:30.189Z,100359.44
2023-02-19T02:18:44.079Z,100353.47
2023-02-19T02:21:24.609Z,100347.53
2023-02-19T02:23:40.429Z,100354.22
2023-02-19T02:25:47.853Z,100349.94
2023-02-19T02:27:57.236Z,100344.66
2023-02-19T02:30:25.767Z,100353.03
2023-02-19T02:32:33.659Z,100328.66
2023-02-19T02:34:49.361Z,100352.13
2023-02-19T02:36:55.432Z,100349.53
2023-02-19T02:38:57.857Z,100338.00
2023-02-19T02:40:59.929Z,100318.13
2023-02-19T02:43:01.383Z,100341.63
2023-02-19T02:45:18.085Z,100336.75
2023-02-19T02:47:19.720Z,100338.78
2023-02-19T02:49:23.969Z,100316.13
2023-02-19T02:51:44.062Z,100323.38
2023-02-19T02:54:11.463Z,100318.47
2023-02-19T02:56:15.443Z,100321.63
2023-02-19T02:58:17.686Z,100322.78
2023-02-19T03:00:19.547Z,100338.72
2023-02-19T03:02:26.088Z,100336.44
2023-02-19T03:05:08.131Z,100326.50
2023-02-19T03:07:11.261Z,100331.50
2023-02-19T03:09:23.391Z,100333.72
2023-02-19T03:11:25.038Z,100325.72
2023-02-19T03:13:35.298Z,100342.69
2023-02-19T03:15:43.367Z,100333.56
2023-02-19T03:17:51.157Z,100326.97
2023-02-19T03:19:56.116Z,100329.19
2023-02-19T03:22:05.782Z,100333.88
2023-02-19T03:24:10.314Z,100327.75
2023-02-19T03:26:12.740Z,100323.44
2023-02-19T03:28:16.883Z,100320.84
2023-02-19T03:30:26.207Z,100312.41
2023-02-19T03:32:39.797Z,100287.78
2023-02-19T03:34:48.703Z,100321.31
2023-02-19T03:37:00.610Z,100313.72
2023-02-19T03:39:05.608Z,100308.31
2023-02-19T03:41:21.755Z,100287.34
2023-02-19T03:43:55.880Z,100328.94
2023-02-19T03:46:06.859Z,100326.41
2023-02-19T03:48:30.914Z,100310.22
2023-02-19T03:50:32.264Z,100323.09
2023-02-19T03:52:44.695Z,100319.06
2023-02-19T03:55:05.097Z,100310.94
2023-02-19T03:57:39.036Z,100308.63
2023-02-19T03:59:54.262Z,100318.13
2023-02-19T04:02:01.961Z,100306.94
2023-02-19T04:04:14.858Z,100309.47
2023-02-19T04:06:22.679Z,100294.94
2023-02-19T04:08:26.164Z,100311.69
2023-02-19T04:10:29.486Z,100306.66
2023-02-19T04:12:31.020Z,100297.06
2023-02-19T04:14:50.341Z,100296.56
2023-02-19T04:16:58.723Z,100294.78
2023-02-19T04:19:07.624Z,100319.25
2023-02-19T04:21:10.603Z,100318.53
2023-02-19T04:23:14.599Z,100298.41
2023-02-19T04:25:16.176Z,100311.06
2023-02-19T04:27:18.280Z,100300.88
2023-02-19T04:29:19.712Z,100288.38
2023-02-19T04:31:21.904Z,100313.41
2023-02-19T04:33:23.522Z,100300.25
2023-02-19T04:35:24.920Z,100294.28
2023-02-19T04:37:26.542Z,100294.19
2023-02-19T04:39:28.047Z,100299.94
2023-02-19T04:41:29.564Z,100293.25
2023-02-19T04:43:31.081Z,100295.88
2023-02-19T04:45:32.561Z,100275.22
2023-02-19T04:47:34.044Z,100298.56
2023-02-19T04:49:35.589Z,100297.41
2023-02-19T04:51:37.235Z,100297.88
2023-02-19T04:53:38.715Z,100292.09
2023-02-19T04:55:40.276Z,100290.81
2023-02-19T04:57:41.792Z,100295.38
2023-02-19T04:59:43.272Z,100276.00
2023-02-19T05:01:44.837Z,100291.91
2023-02-19T05:03:46.465Z,100287.31
2023-02-19T05:05:47.859Z,100290.03
2023-02-19T05:07:49.403Z,100292.00
2023-02-19T05:09:50.935Z,100272.63
2023-02-19T05:11:52.357Z,100277.44
2023-02-19T05:13:55.722Z,100268.47
2023-02-19T05:15:59.493Z,100285.63
2023-02-19T05:18:00.911Z,100267.41
2023-02-19T05:20:02.477Z,100274.22
2023-02-19T05:22:03.986Z,100284.81
2023-02-19T05:24:05.605Z,100291.84
2023-02-19T05:26:13.843Z,100280.63
2023-02-19T05:28:15.435Z,100291.94
2023-02-19T05:30:16.868Z,100295.78
2023-02-19T05:32:18.828Z,100277.66
2023-02-19T05:34:20.449Z,100273.03
2023-02-19T05:36:22.718Z,100282.06
2023-02-19T05:38:24.866Z,100289.91
2023-02-19T05:40:26.408Z,100294.63
2023-02-19T05:42:27.811Z,100295.03
2023-02-19T05:44:29.331Z,100294.44
2023-02-19T05:46:31.232Z,100296.91
2023-02-19T05:48:33.366Z,100302.78
2023-02-19T05:50:38.261Z,100303.53
2023-02-19T05:52:41.416Z,100304.47
2023-02-19T05:54:42.820Z,100312.81
2023-02-19T05:56:44.495Z,100319.72
2023-02-19T05:58:45.882Z,100301.28
2023-02-19T06:00:47.299Z,100286.44
2023-02-19T06:02:49.018Z,100311.38
2023-02-19T06:04:50.477Z,100314.09
2023-02-19T06:06:51.881Z,100305.31
2023-02-19T06:08:54.015Z,100309.94
2023-02-19T06:10:55.408Z,100307.09
2023-02-19T06:12:56.878Z,100293.91
2023-02-19T06:14:58.581Z,100275.06
2023-02-19T06:16:59.976Z,100284.91
2023-02-19T06:19:04.731Z,100280.44
2023-02-19T06:21:09.446Z,100307.34
2023-02-19T06:23:11.070Z,100304.72
2023-02-19T06:25:12.459Z,100314.16
2023-02-19T06:27:14.181Z,100308.69
2023-02-19T06:29:17.022Z,100310.81
2023-02-19T06:31:20.232Z,100307.97
2023-02-19T06:33:22.032Z,100318.94
2023-02-19T06:35:23.483Z,100315.81
2023-02-19T06:37:24.950Z,100326.19
2023-02-19T06:39:27.110Z,100330.56
2023-02-19T06:41:28.547Z,100336.13
2023-02-19T06:43:31.502Z,100334.13
2023-02-19T06:45:33.431Z,100339.16
2023-02-19T06:47:34.825Z,100347.03
2023-02-19T06:49:36.210Z,100335.16
2023-02-19T06:51:37.882Z,100338.75
2023-02-19T06:53:39.353Z,100330.50
2023-02-19T06:55:40.818Z,100322.22
2023-02-19T06:57:42.490Z,100346.22
2023-02-19T06:59:43.957Z,100330.38
2023-02-19T07:01:46.216Z,100342.13
2023-02-19T07:03:47.985Z,100349.34
2023-02-19T07:05:49.873Z,100338.56
2023-02-19T07:07:51.357Z,100355.59
2023-02-19T07:09:52.978Z,100355.31
2023-02-19T07:11:54.699Z,100342.44
2023-02-19T07:13:58.708Z,100341.72
2023-02-19T07:16:03.436Z,100363.25
2023-02-19T07:18:04.961Z,100362.66
2023-02-19T07:20:06.538Z,100365.88
2023-02-19T07:22:08.178Z,100371.03
2023-02-19T07:24:10.226Z,100374.59
2023-02-19T07:26:13.279Z,100374.78
2023-02-19T07:28:14.880Z,100354.91
2023-02-19T07:30:16.363Z,100375.84
2023-02-19T07:32:17.782Z,100376.78
2023-02-19T07:34:19.396Z,100378.44
2023-02-19T07:36:23.067Z,100374.06
2023-02-19T07:38:25.264Z,100368.38
2023-02-19T07:40:26.872Z,100371.41
2023-02-19T07:42:28.312Z,100352.47
2023-02-19T07:44:29.692Z,100374.25
2023-02-19T07:46:31.432Z,100376.66
2023-02-19T07:48:34.499Z,100377.69
2023-02-19T07:50:35.967Z,100381.84
2023-02-19T07:52:37.772Z,100370.97
2023-02-19T07:54:39.159Z,100357.03
2023-02-19T07:56:40.560Z,100373.00
2023-02-19T07:58:42.549Z,100360.19
2023-02-19T08:00:43.952Z,100355.25
2023-02-19T08:02:46.054Z,100382.16
2023-02-19T08:04:48.041Z,100360.19
2023-02-19T08:06:49.419Z,100385.31
2023-02-19T08:08:50.807Z,100380.38
2023-02-19T08:10:52.566Z,100384.78
2023-02-19T08:13:01.238Z,100382.44
2023-02-19T08:15:02.704Z,100371.91
2023-02-19T08:17:04.339Z,100375.28
2023-02-19T08:19:05.791Z,100387.19
2023-02-19T08:21:07.299Z,100382.81
2023-02-19T08:23:09.746Z,100381.09
2023-02-19T08:25:11.208Z,100375.25
2023-02-19T08:27:12.611Z,100390.41
2023-02-19T08:29:14.067Z,100372.41
2023-02-19T08:31:16.078Z,100376.53
2023-02-19T08:33:20.690Z,100364.72
2023-02-19T08:35:22.790Z,100364.19
2023-02-19T08:37:24.181Z,100382.59
2023-02-19T08:39:25.621Z,100381.19
2023-02-19T08:41:27.245Z,100363.03
2023-02-19T08:43:28.674Z,100380.44
2023-02-19T08:45:30.512Z,100380.66
2023-02-19T08:47:34.400Z,100385.69
2023-02-19T08:49:35.822Z,100383.78
2023-02-19T08:51:37.268Z,100392.41
2023-02-19T08:53:40.751Z,100381.78
2023-02-19T08:55:42.171Z,100367.28
2023-02-19T08:57:44.009Z,100386.97
2023-02-19T08:59:45.679Z,100370.22
2023-02-19T09:01:47.300Z,100387.47
2023-02-19T09:03:48.790Z,100395.78
2023-02-19T09:05:50.638Z,100378.81
2023-02-19T09:07:52.030Z,100403.66
2023-02-19T09:09:53.983Z,100395.53
2023-02-19T09:11:55.556Z,100404.22
2023-02-19T09:13:57.269Z,100353.53
2023-02-19T09:15:58.746Z,100416.16
2023-02-19T09:18:00.392Z,100388.47
2023-02-19T09:20:01.828Z,100399.50
2023-02-19T09:22:04.838Z,100409.56
2023-02-19T09:24:08.839Z,100392.53
2023-02-19T09:26:10.351Z,100407.44
2023-02-19T09:28:11.755Z,100408.78
2023-02-19T09:30:13.600Z,100415.91
2023-02-19T09:32:15.952Z,100417.56
2023-02-19T09:34:18.067Z,100406.19
2023-02-19T09:36:19.744Z,100389.66
2023-02-19T09:38:21.180Z,100405.03
2023-02-19T09:40:22.584Z,100400.88
2023-02-19T09:42:28.377Z,100413.16
2023-02-19T09:44:45.420Z,100412.22
2023-02-19T09:46:52.698Z,100417.59
2023-02-19T09:48:59.168Z,100418.50
2023-02-19T09:51:01.871Z,100421.22
2023-02-19T09:53:11.283Z,100424.09
2023-02-19T09:55:33.462Z,100433.66
2023-02-19T09:57:36.402Z,100415.31
2023-02-19T09:59:44.673Z,100439.28
2023-02-19T10:01:49.505Z,100427.47
2023-02-19T10:03:50.979Z,100431.00
2023-02-19T10:05:53.953Z,100417.47
2023-02-19T10:07:56.674Z,100446.66
2023-02-19T10:10:18.286Z,100436.53
2023-02-19T10:12:28.580Z,100443.00
2023-02-19T10:14:44.898Z,100433.56
2023-02-19T10:16:49.079Z,100442.31
2023-02-19T10:18:50.961Z,100439.91
2023-02-19T10:20:53.273Z,100445.88
2023-02-19T10:23:02.700Z,100452.09
2023-02-19T10:25:04.459Z,100457.94
2023-02-19T10:27:12.043Z,100404.53
2023-02-19T10:29:13.436Z,100460.94
2023-02-19T10:31:23.339Z,100468.00
2023-02-19T10:33:25.620Z,100459.63
2023-02-19T10:35:27.472Z,100449.09
2023-02-19T10:37:29.603Z,100460.47
2023-02-19T10:39:41.876Z,100463.59
2023-02-19T10:41:44.407Z,100471.69
2023-02-19T10:43:53.125Z,100471.94
2023-02-19T10:45:55.049Z,100467.13
2023-02-19T10:47:57.271Z,100438.84
2023-02-19T10:50:02.114Z,100463.66
2023-02-19T10:52:35.537Z,100465.03
2023-02-19T10:54:37.002Z,100454.81
2023-02-19T10:56:38.567Z,100454.72
2023-02-19T10:58:40.546Z,100464.31
2023-02-19T11:00:41.970Z,100461.28
2023-02-19T11:02:44.632Z,100464.63
2023-02-19T11:05:10.792Z,100467.03
2023-02-19T11:07:17.043Z,100457.84
2023-02-19T11:09:39.198Z,100461.88
2023-02-19T11:11:41.133Z,100474.16
2023-02-19T11:13:42.788Z,100471.56
2023-02-19T11:15:52.909Z,100461.59
2023-02-19T11:18:13.819Z,100476.06
2023-02-19T11:20:17.409Z,100473.00
2023-02-19T11:22:38.722Z,100475.88
2023-02-19T11:24:40.297Z,100456.16
2023-02-19T11:26:44.711Z,100473.59
2023-02-19T11:28:54.944Z,100474.19
2023-02-19T11:31:14.705Z,100471.94
2023-02-19T11:33:16.309Z,100478.22
2023-02-19T11:35:22.093Z,100482.28
2023-02-19T11:37:23.718Z,100474.03
2023-02-19T11:39:30.633Z,100488.84
2023-02-19T11:41:56.105Z,100481.03
2023-02-19T11:44:04.414Z,100462.50
2023-02-19T11:46:25.886Z,100485.94
2023-02-19T11:48:38.300Z,100486.84
2023-02-19T11:50:45.676Z,100480.94
2023-02-19T11:52:50.032Z,100491.75
2023-02-19T11:54:59.436Z,100488.44
2023-02-19T11:57:36.303Z,100492.72
2023-02-19T11:59:45.706Z,100499.44
2023-02-19T12:02:06.018Z,100503.84
2023-02-19T12:04:19.334Z,100506.78
2023-02-19T12:06:38.107Z,100500.78
2023-02-19T12:08:58.239Z,100521.00
2023-02-19T12:11:27.163Z,100518.78
2023-02-19T12:13:54.336Z,100527.97
2023-02-19T12:16:08.945Z,100524.34
2023-02-19T12:18:36.766Z,100508.81
2023-02-19T12:21:01.326Z,100531.88
2023-02-19T12:23:40.336Z,100534.13
2023-02-19T12:26:01.671Z,100542.47
2023-02-19T12:28:26.296Z,100545.13
2023-02-19T12:30:45.635Z,100540.56
2023-02-19T12:32:55.180Z,100542.81
2023-02-19T12:35:14.528Z,100538.31
2023-02-19T12:37:15.967Z,100547.84
2023-02-19T12:39:17.322Z,100550.38
2023-02-19T12:41:30.780Z,100542.91
2023-02-19T12:43:34.771Z,100550.22
2023-02-19T12:45:46.833Z,100553.31
2023-02-19T12:48:03.850Z,100554.25
2023-02-19T12:50:20.120Z,100559.03
2023-02-19T12:52:26.383Z,100551.91
2023-02-19T12:54:34.576Z,100553.56
2023-02-19T12:57:03.358Z,100560.03
2023-02-19T12:59:22.863Z,100562.00
2023-02-19T13:01:30.472Z,100561.31
2023-02-19T13:03:39.473Z,100566.59
2023-02-19T13:05:40.828Z,100569.09
2023-02-19T13:08:03.320Z,100558.84
2023-02-19T13:10:10.878Z,100557.41
2023-02-19T13:12:23.375Z,100509.81
2023-02-19T13:14:33.846Z,100563.16
2023-02-19T13:16:40.150Z,100564.47
2023-02-19T13:18:50.907Z,100554.41
2023-02-19T13:20:53.179Z,100533.84
2023-02-19T13:23:04.155Z,100574.50
2023-02-19T13:25:07.662Z,100576.78
2023-02-19T13:27:31.438Z,100581.41
2023-02-19T13:29:54.767Z,100575.28
2023-02-19T13:32:27.088Z,100575.31
2023-02-19T13:34:53.304Z,100582.31
2023-02-19T13:36:56.113Z,100582.22
2023-02-19T13:38:59.619Z,100592.50
2023-02-19T13:41:01.413Z,100575.13
2023-02-19T13:43:06.044Z,100587.38
2023-02-19T13:45:07.767Z,100590.38
2023-02-19T13:47:49.013Z,100609.34
2023-02-19T13:49:50.571Z,100601.34
2023-02-19T13:51:54.202Z,100603.53
2023-02-19T13:53:55.582Z,100613.22
2023-02-19T13:55:57.101Z,100613.34
2023-02-19T13:58:32.842Z,100609.66
2023-02-19T14:00:49.862Z,100623.22
2023-02-19T14:03:29.893Z,100618.38
2023-02-19T14:06:08.465Z,100615.16
2023-02-19T14:08:09.913Z,100618.25
2023-02-19T14:10:33.251Z,100612.28
2023-02-19T14:12:37.175Z,100599.81
2023-02-19T14:14:42.226Z,100622.81
2023-02-19T14:16:55.564Z,100622.47
2023-02-19T14:18:57.151Z,100625.84
2023-02-19T14:21:14.158Z,100614.25
2023-02-19T14:23:22.596Z,100624.84
2023-02-19T14:25:28.913Z,100624.75
2023-02-19T14:27:30.417Z,100616.81
2023-02-19T14:29:32.173Z,100620.19
2023-02-19T14:31:38.277Z,100612.75
2023-02-19T14:33:44.963Z,100595.28
2023-02-19T14:35:49.757Z,100629.44
2023-02-19T14:37:55.099Z,100623.69
2023-02-19T14:39:57.729Z,100624.16
2023-02-19T14:42:02.806Z,100627.38
2023-02-19T14:44:08.231Z,100634.31
2023-02-19T14:46:24.341Z,100642.47
2023-02-19T14:48:33.329Z,100644.41
2023-02-19T14:50:35.104Z,100649.09
2023-02-19T14:52:43.307Z,100653.97
2023-02-19T14:54:51.874Z,100659.53
2023-02-19T14:56:54.611Z,100658.19
2023-02-19T14:59:21.187Z,100658.78
2023-02-19T15:01:29.598Z,100664.19
2023-02-19T15:03:36.552Z,100667.84
2023-02-19T15:05:38.398Z,100673.88
2023-02-19T15:07:41.965Z,100626.28
2023-02-19T15:09:52.571Z,100683.25
2023-02-19T15:11:54.849Z,100666.53
2023-02-19T15:14:00.788Z,100692.38
2023-02-19T15:16:02.464Z,100694.94
2023-02-19T15:18:05.147Z,100693.75
2023-02-19T15:20:11.560Z,100682.69
2023-02-19T15:22:20.974Z,100676.03
2023-02-19T15:24:22.677Z,100690.94
2023-02-19T15:26:32.113Z,100683.50
2023-02-19T15:28:34.228Z,100667.56
2023-02-19T15:30:35.719Z,100701.59
2023-02-19T15:32:37.330Z,100701.78
2023-02-19T15:34:38.723Z,100706.94
2023-02-19T15:36:40.310Z,100707.59
2023-02-19T15:38:42.106Z,100706.44
2023-02-19T15:40:45.352Z,100714.22
2023-02-19T15:42:47.592Z,100708.44
2023-02-19T15:44:59.027Z,100701.19
2023-02-19T15:47:06.631Z,100702.50
2023-02-19T15:49:17.668Z,100703.94
2023-02-19T15:51:26.430Z,100717.81
2023-02-19T15:53:30.853Z,100723.34
2023-02-19T15:55:32.264Z,100719.56
2023-02-19T15:57:40.778Z,100717.47
2023-02-19T15:59:50.149Z,100742.03
2023-02-19T16:01:51.857Z,100710.53
2023-02-19T16:03:54.617Z,100743.19
2023-02-19T16:05:58.924Z,100755.44
2023-02-19T16:08:08.202Z,100753.66
2023-02-19T16:10:24.412Z,100771.91
2023-02-19T16:12:26.590Z,100770.72
2023-02-19T16:14:33.632Z,100777.31
2023-02-19T16:16:38.727Z,100780.88
2023-02-19T16:18:47.688Z,100775.63
2023-02-19T16:20:49.172Z,100782.78
2023-02-19T16:22:52.327Z,100759.53
2023-02-19T16:24:57.461Z,100788.72
2023-02-19T16:26:59.322Z,100772.75
2023-02-19T16:29:01.390Z,100788.41
2023-02-19T16:31:05.744Z,100766.38
2023-02-19T16:33:41.515Z,100789.16
2023-02-19T16:35:43.021Z,100794.63
2023-02-19T16:37:58.236Z,100802.84
2023-02-19T16:40:08.507Z,100811.56
2023-02-19T16:42:14.458Z,100815.50
2023-02-19T16:44:24.880Z,100818.78
2023-02-19T16:46:26.328Z,100818.19
2023-02-19T16:48:28.305Z,100824.22
2023-02-19T16:50:29.795Z,100816.78
2023-02-19T16:52:31.270Z,100823.56
2023-02-19T16:54:32.838Z,100834.94
2023-02-19T16:56:34.293Z,100815.31
2023-02-19T16:58:36.437Z,100840.16
2023-02-19T17:00:38.705Z,100850.59
2023-02-19T17:02:40.327Z,100839.00
2023-02-19T17:04:41.927Z,100845.84
2023-02-19T17:06:43.688Z,100843.22
2023-02-19T17:08:45.272Z,100846.28
2023-02-19T17:10:46.852Z,100863.22
2023-02-19T17:12:48.985Z,100858.38
2023-02-19T17:14:50.462Z,100865.75
2023-02-19T17:16:51.872Z,100872.69
2023-02-19T17:18:54.467Z,100876.88
2023-02-19T17:21:05.152Z,100873.69
2023-02-19T17:23:06.535Z,100885.94
2023-02-19T17:25:08.135Z,100891.53
2023-02-19T17:27:13.010Z,100882.25
2023-02-19T17:29:16.017Z,100899.28
2023-02-19T17:31:18.258Z,100908.91
2023-02-19T17:33:19.899Z,100914.50
2023-02-19T17:35:21.382Z,100920.28
2023-02-19T17:37:22.985Z,100924.13
2023-02-19T17:39:24.485Z,100924.91
2023-02-19T17:41:26.129Z,100922.44
2023-02-19T17:43:27.652Z,100927.81
2023-02-19T17:45:29.165Z,100915.94
2023-02-19T17:47:30.575Z,100928.56
2023-02-19T17:49:32.027Z,100913.09
2023-02-19T17:51:34.951Z,100928.56
2023-02-19T17:53:36.372Z,100902.59
2023-02-19T17:55:37.885Z,100924.16
2023-02-19T17:57:39.377Z,100905.63
2023-02-19T17:59:40.827Z,100930.31
2023-02-19T18:01:42.308Z,100927.94
2023-02-19T18:03:44.032Z,100904.53
2023-02-19T18:05:45.739Z,100931.09
2023-02-19T18:07:48.299Z,100936.22
2023-02-19T18:09:49.881Z,100926.69
2023-02-19T18:11:51.323Z,100902.59
2023-02-19T18:13:52.834Z,100932.94
2023-02-19T18:15:54.324Z,100917.09
2023-02-19T18:17:56.867Z,100936.97
2023-02-19T18:19:58.340Z,100939.25
2023-02-19T18:21:59.819Z,100934.09
2023-02-19T18:24:01.219Z,100942.91
2023-02-19T18:26:02.828Z,100932.03
2023-02-19T18:28:04.568Z,100951.19
2023-02-19T18:30:09.784Z,100953.47
2023-02-19T18:32:11.907Z,100968.75
2023-02-19T18:34:18.771Z,100967.47
2023-02-19T18:36:20.184Z,100977.00
2023-02-19T18:38:21.819Z,100981.22
2023-02-19T18:40:24.036Z,100961.25
2023-02-19T18:42:25.799Z,100979.69
2023-02-19T18:44:27.405Z,100961.41
2023-02-19T18:46:30.467Z,100976.59
2023-02-19T18:48:32.326Z,100972.72
2023-02-19T18:50:33.799Z,100946.38
2023-02-19T18:52:35.386Z,101006.19
2023-02-19T18:54:36.801Z,101001.41
2023-02-19T18:56:45.780Z,101002.97
2023-02-19T18:58:49.448Z,101006.63
2023-02-19T19:00:52.401Z,101015.38
2023-02-19T19:03:00.106Z,100994.91
2023-02-19T19:05:01.876Z,100978.88
2023-02-19T19:07:06.940Z,101008.56
2023-02-19T19:09:09.011Z,101004.31
2023-02-19T19:11:10.941Z,101030.38
2023-02-19T19:13:12.643Z,101008.03
2023-02-19T19:15:17.938Z,101027.09
2023-02-19T19:17:19.644Z,101046.75
2023-02-19T19:19:21.109Z,101034.97
2023-02-19T19:21:23.020Z,101033.41
2023-02-19T19:23:24.715Z,101029.97
2023-02-19T19:25:26.147Z,101029.31
2023-02-19T19:27:27.688Z,101035.47
2023-02-19T19:29:29.175Z,101027.91
2023-02-19T19:31:35.564Z,101005.16
2023-02-19T19:33:37.360Z,101023.53
2023-02-19T19:35:38.907Z,101009.19
2023-02-19T19:37:40.290Z,101030.47
2023-02-19T19:39:43.563Z,101012.00
2023-02-19T19:41:45.179Z,101024.06
2023-02-19T19:43:46.673Z,101002.72
2023-02-19T19:45:48.142Z,101015.59
2023-02-19T19:47:49.634Z,101010.88
2023-02-19T19:49:51.049Z,101040.81
2023-02-19T19:51:52.564Z,101011.78
2023-02-19T19:53:54.046Z,101014.72
2023-02-19T19:55:55.461Z,101030.91
2023-02-19T19:57:56.938Z,101025.25
2023-02-19T19:59:58.412Z,101045.44
2023-02-19T20:01:59.913Z,101001.56
2023-02-19T20:04:01.432Z,101043.06
2023-02-19T20:06:02.927Z,101039.94
2023-02-19T20:08:04.600Z,101052.84
2023-02-19T20:10:07.774Z,101025.06
2023-02-19T20:12:09.329Z,101040.66
2023-02-19T20:14:10.747Z,101060.25
2023-02-19T20:16:12.303Z,101055.94
2023-02-19T20:18:13.958Z,101046.44
2023-02-19T20:20:17.323Z,101058.56
2023-02-19T20:22:19.272Z,101059.03
2023-02-19T20:24:28.706Z,101068.88
2023-02-19T20:26:30.814Z,101067.47
2023-02-19T20:28:32.624Z,101045.00
2023-02-19T20:30:34.080Z,101069.09
2023-02-19T20:32:35.828Z,101069.63
2023-02-19T20:34:37.561Z,101073.78
2023-02-19T20:36:43.333Z,101075.16
2023-02-19T20:38:49.266Z,101064.19
2023-02-19T20:40:50.839Z,101032.78
2023-02-19T20:42:52.322Z,101069.09
2023-02-19T20:44:53.695Z,101065.94
2023-02-19T20:46:56.610Z,101052.13
2023-02-19T20:48:58.427Z,101045.81
2023-02-19T20:50:59.902Z,101068.16
2023-02-19T20:53:01.507Z,101055.28
2023-02-19T20:55:03.122Z,101048.13
2023-02-19T20:57:05.815Z,101067.31
2023-02-19T20:59:07.500Z,101071.84
2023-02-19T21:01:09.253Z,101072.91
2023-02-19T21:03:10.642Z,101076.06
2023-02-19T21:05:12.120Z,101076.84
2023-02-19T21:07:13.662Z,101074.34
2023-02-19T21:09:15.112Z,101073.13
2023-02-19T21:11:16.579Z,101079.28
2023-02-19T21:13:18.195Z,101058.38
2023-02-19T21:15:20.163Z,101079.16
2023-02-19T21:17:21.754Z,101055.97
2023-02-19T21:19:23.296Z,101075.53
2023-02-19T21:21:25.638Z,101074.34
2023-02-19T21:23:27.206Z,101072.72
2023-02-19T21:25:28.689Z,101079.47
2023-02-19T21:27:30.072Z,101083.84
2023-02-19T21:29:31.787Z,101085.97
2023-02-19T21:31:38.977Z,101090.28
2023-02-19T21:33:40.444Z,101088.75
2023-02-19T21:35:42.420Z,101100.09
2023-02-19T21:37:44.254Z,101100.16
2023-02-19T21:39:45.704Z,101087.34
2023-02-19T21:41:47.413Z,101102.47
2023-02-19T21:43:49.447Z,101109.63
2023-02-19T21:45:50.925Z,101104.09
2023-02-19T21:47:52.581Z,101099.19
2023-02-19T21:49:54.150Z,101076.50
2023-02-19T21:51:55.609Z,101083.19
2023-02-19T21:53:58.012Z,101110.66
2023-02-19T21:55:59.742Z,101093.84
2023-02-19T21:58:01.113Z,101110.22
2023-02-19T22:00:03.818Z,101087.72
2023-02-19T22:02:05.291Z,101108.81
2023-02-19T22:04:07.663Z,101103.16
2023-02-19T22:06:09.146Z,101109.84
2023-02-19T22:08:10.619Z,101107.22
2023-02-19T22:10:12.035Z,101066.28
2023-02-19T22:12:13.636Z,101117.00
2023-02-19T22:14:15.110Z,101099.94
2023-02-19T22:16:17.493Z,101102.25
2023-02-19T22:18:18.985Z,101126.78
2023-02-19T22:20:20.582Z,101112.19
2023-02-19T22:22:21.983Z,101100.66
2023-02-19T22:24:24.252Z,101110.50
2023-02-19T22:26:28.778Z,101116.50
2023-02-19T22:28:30.199Z,101113.25
2023-02-19T22:30:31.769Z,101106.13
2023-02-19T22:32:33.375Z,101093.66
2023-02-19T22:34:38.496Z,101111.53
2023-02-19T22:36:39.888Z,101103.81
2023-02-19T22:38:41.607Z,101110.47
2023-02-19T22:40:43.123Z,101101.47
2023-02-19T22:42:44.611Z,101085.53
2023-02-19T22:44:46.081Z,101098.38
2023-02-19T22:46:56.828Z,101098.22
2023-02-19T22:49:01.812Z,101094.41
2023-02-19T22:51:03.495Z,101114.75
2023-02-19T22:53:04.924Z,101115.22
2023-02-19T22:55:06.340Z,101111.13
2023-02-19T22:57:07.867Z,101097.69
2023-02-19T22:59:09.469Z,101093.88
2023-02-19T23:01:13.013Z,101097.75
2023-02-19T23:03:14.664Z,101076.47
2023-02-19T23:05:16.502Z,101100.97
2023-02-19T23:07:17.931Z,101082.69
2023-02-19T23:09:25.134Z,101100.88
2023-02-19T23:11:29.686Z,101103.69
2023-02-19T23:13:31.285Z,101088.94
2023-02-19T23:15:32.693Z,101085.38
2023-02-19T23:17:34.155Z,101088.19
2023-02-19T23:19:35.748Z,101083.03
2023-02-19T23:21:41.708Z,101073.34
2023-02-19T23:23:44.755Z,101089.59
2023-02-19T23:25:46.317Z,101060.81
2023-02-19T23:27:47.762Z,101075.88
2023-02-19T23:29:49.169Z,101091.22
2023-02-19T23:31:50.914Z,101080.84
2023-02-19T23:33:53.501Z,101083.53
2023-02-19T23:35:54.932Z,101062.59
2023-02-19T23:37:56.440Z,101074.66
2023-02-19T23:39:58.079Z,101081.47
2023-02-19T23:41:59.484Z,101071.78
2023-02-19T23:44:01.084Z,101067.41
2023-02-19T23:46:03.127Z,101068.09
2023-02-19T23:48:04.607Z,101067.97